createdAt,value
2018-07-20T00:02:14.800Z,3.23
2018-07-20T00:04:44.916Z,3.47
2018-07-20T00:07:15.039Z,3.73
2018-07-20T00:09:45.142Z,3.40
2018-07-20T00:12:15.281Z,3.63
2018-07-20T00:14:45.386Z,4.37
2018-07-20T00:17:15.684Z,3.80
2018-07-20T00:19:45.816Z,4.07
2018-07-20T00:22:15.982Z,3.20
2018-07-20T00:24:46.125Z,2.70
2018-07-20T00:27:16.334Z,3.73
2018-07-20T00:29:46.457Z,3.50
2018-07-20T00:32:16.634Z,3.47
2018-07-20T00:34:46.805Z,4.07
2018-07-20T00:37:17.056Z,3.43
2018-07-20T00:39:47.216Z,4.00
2018-07-20T00:42:17.436Z,4.03
2018-07-20T00:44:47.611Z,4.17
2018-07-20T00:47:17.333Z,3.93
2018-07-20T00:49:47.473Z,3.87
2018-07-20T00:52:17.753Z,4.63
2018-07-20T00:54:47.885Z,4.03
2018-07-20T00:57:18.014Z,3.67
2018-07-20T00:59:48.138Z,4.40
2018-07-20T01:02:18.308Z,4.17
2018-07-20T01:04:48.398Z,3.73
2018-07-20T01:07:18.527Z,3.60
2018-07-20T01:09:48.653Z,3.60
2018-07-20T01:12:18.845Z,3.73
2018-07-20T01:14:48.949Z,4.90
2018-07-20T01:17:19.122Z,4.20
2018-07-20T01:19:49.262Z,4.27
2018-07-20T01:22:19.441Z,4.00
2018-07-20T01:24:49.585Z,4.20
2018-07-20T01:27:19.750Z,4.43
2018-07-20T01:29:49.896Z,5.80
2018-07-20T01:32:20.045Z,4.00
2018-07-20T01:34:50.116Z,4.13
2018-07-20T01:37:20.268Z,3.60
2018-07-20T01:39:50.350Z,3.93
2018-07-20T01:42:20.480Z,3.67
2018-07-20T01:44:50.590Z,3.87
2018-07-20T01:47:20.721Z,4.30
2018-07-20T01:49:51.146Z,3.70
2018-07-20T01:52:21.297Z,4.43
2018-07-20T01:54:51.389Z,4.30
2018-07-20T01:57:21.545Z,3.83
2018-07-20T01:59:51.654Z,4.37
2018-07-20T02:02:21.848Z,4.20
2018-07-20T02:04:52.395Z,5.00
2018-07-20T02:07:22.614Z,4.53
2018-07-20T02:09:52.733Z,4.07
2018-07-20T02:12:22.906Z,3.47
2018-07-20T02:14:52.979Z,3.60
2018-07-20T02:17:23.241Z,3.37
2018-07-20T02:19:53.336Z,4.47
2018-07-20T02:22:23.504Z,4.70
2018-07-20T02:24:53.610Z,4.13
2018-07-20T02:27:23.858Z,4.17
2018-07-20T02:29:54.029Z,4.40
2018-07-20T02:32:24.206Z,4.73
2018-07-20T02:34:54.321Z,4.10
2018-07-20T02:37:24.433Z,4.03
2018-07-20T02:39:54.573Z,5.53
2018-07-20T02:42:24.739Z,4.80
2018-07-20T02:44:54.862Z,4.47
2018-07-20T02:47:24.999Z,5.20
2018-07-20T02:49:55.245Z,4.30
2018-07-20T02:52:25.332Z,4.00
2018-07-20T02:54:55.444Z,4.90
2018-07-20T02:57:25.601Z,5.00
2018-07-20T02:59:55.704Z,5.10
2018-07-20T03:02:25.828Z,5.90
2018-07-20T03:04:55.943Z,5.00
2018-07-20T03:07:26.144Z,5.90
2018-07-20T03:09:56.263Z,5.13
2018-07-20T03:12:26.385Z,6.20
2018-07-20T03:14:56.474Z,5.10
2018-07-20T03:17:26.644Z,5.30
2018-07-20T03:19:56.726Z,4.30
2018-07-20T03:22:26.927Z,7.40
2018-07-20T03:24:57.047Z,7.33
2018-07-20T03:27:27.148Z,6.70
2018-07-20T03:29:57.225Z,5.97
2018-07-20T03:32:27.430Z,5.97
2018-07-20T03:34:57.575Z,6.40
2018-07-20T03:37:27.711Z,6.90
2018-07-20T03:39:57.804Z,6.90
2018-07-20T03:42:28.086Z,6.73
2018-07-20T03:44:58.162Z,5.77
2018-07-20T03:47:28.284Z,5.50
2018-07-20T03:49:58.405Z,6.33
2018-07-20T03:52:28.572Z,5.87
2018-07-20T03:54:58.674Z,6.53
2018-07-20T03:57:28.804Z,5.60
2018-07-20T03:59:58.930Z,5.50
2018-07-20T04:02:29.097Z,5.47
2018-07-20T04:04:59.229Z,5.73
2018-07-20T04:07:28.961Z,6.77
2018-07-20T04:09:59.049Z,5.37
2018-07-20T04:12:29.206Z,5.47
2018-07-20T04:14:59.406Z,5.70
2018-07-20T04:17:37.377Z,7.10
2018-07-20T04:20:08.012Z,6.63
2018-07-20T04:22:38.215Z,6.30
2018-07-20T04:25:08.331Z,6.77
2018-07-20T04:27:38.496Z,5.80
2018-07-20T04:30:12.276Z,5.73
2018-07-20T04:32:42.453Z,5.87
2018-07-20T04:35:12.845Z,4.83
2018-07-20T04:37:43.075Z,5.20
2018-07-20T04:40:13.193Z,6.57
2018-07-20T04:42:43.316Z,6.20
2018-07-20T04:45:13.443Z,6.33
2018-07-20T04:47:43.580Z,5.93
2018-07-20T04:50:13.743Z,4.33
2018-07-20T04:52:43.920Z,6.10
2018-07-20T04:55:14.008Z,5.87
2018-07-20T04:57:44.171Z,5.97
2018-07-20T05:00:14.852Z,5.13
2018-07-20T05:02:45.013Z,6.40
2018-07-20T05:05:15.116Z,5.17
2018-07-20T05:07:45.233Z,5.83
2018-07-20T05:10:15.390Z,7.00
2018-07-20T05:12:45.512Z,6.70
2018-07-20T05:15:15.622Z,6.10
2018-07-20T05:17:45.860Z,6.33
2018-07-20T05:20:16.030Z,6.97
2018-07-20T05:22:46.212Z,7.23
2018-07-20T05:25:16.485Z,6.93
2018-07-20T05:27:46.625Z,5.83
2018-07-20T05:30:16.736Z,7.57
2018-07-20T05:32:47.127Z,10.17
2018-07-20T05:35:17.340Z,7.20
2018-07-20T05:37:47.446Z,8.80
2018-07-20T05:40:17.128Z,7.70
2018-07-20T05:42:47.274Z,8.30
2018-07-20T05:45:17.420Z,6.63
2018-07-20T05:47:47.638Z,6.80
2018-07-20T05:50:17.783Z,6.43
2018-07-20T05:52:47.974Z,7.63
2018-07-20T05:55:18.164Z,7.30
2018-07-20T05:57:48.342Z,6.90
2018-07-20T06:00:18.555Z,6.60
2018-07-20T06:02:48.810Z,8.10
2018-07-20T06:05:18.983Z,6.87
2018-07-20T06:07:49.147Z,7.70
2018-07-20T06:10:19.369Z,8.93
2018-07-20T06:12:50.062Z,8.93
2018-07-20T06:15:20.206Z,8.80
2018-07-20T06:17:50.411Z,10.97
2018-07-20T06:20:20.566Z,9.77
2018-07-20T06:22:50.744Z,10.43
2018-07-20T06:25:20.451Z,9.47
2018-07-20T06:27:50.587Z,8.63
2018-07-20T06:30:20.732Z,8.67
2018-07-20T06:32:50.913Z,10.17
2018-07-20T06:35:21.035Z,10.30
2018-07-20T06:37:51.182Z,7.70
2018-07-20T06:40:21.388Z,8.73
2018-07-20T06:42:51.613Z,9.00
2018-07-20T06:45:21.783Z,10.07
2018-07-20T06:47:52.137Z,9.90
2018-07-20T06:50:22.278Z,9.57
2018-07-20T06:52:52.513Z,10.30
2018-07-20T06:55:22.604Z,9.83
2018-07-20T06:57:52.847Z,10.77
2018-07-20T07:00:24.026Z,8.17
2018-07-20T07:02:54.192Z,7.80
2018-07-20T07:05:24.349Z,8.00
2018-07-20T07:07:54.477Z,8.80
2018-07-20T07:10:24.671Z,7.97
2018-07-20T07:12:54.848Z,7.73
2018-07-20T07:15:25.068Z,7.30
2018-07-20T07:17:55.267Z,6.80
2018-07-20T07:20:25.491Z,5.60
2018-07-20T07:22:55.694Z,7.10
2018-07-20T07:25:25.831Z,7.50
2018-07-20T07:27:55.982Z,7.27
2018-07-20T07:30:26.150Z,7.03
2018-07-20T07:32:56.314Z,6.90
2018-07-20T07:35:26.465Z,7.60
2018-07-20T07:37:56.593Z,6.70
2018-07-20T07:40:26.860Z,5.90
2018-07-20T07:42:57.045Z,7.60
2018-07-20T07:45:27.201Z,7.27
2018-07-20T07:47:57.372Z,7.73
2018-07-20T07:50:27.477Z,7.07
2018-07-20T07:52:57.686Z,7.23
2018-07-20T07:55:27.925Z,6.93
2018-07-20T07:57:58.133Z,7.53
2018-07-20T08:00:28.319Z,6.80
2018-07-20T08:02:58.763Z,7.70
2018-07-20T08:05:28.898Z,6.40
2018-07-20T08:07:59.206Z,5.97
2018-07-20T08:10:29.397Z,6.53
2018-07-20T08:12:59.584Z,4.63
2018-07-20T08:15:29.720Z,5.70
2018-07-20T08:18:00.200Z,6.80
2018-07-20T08:20:30.429Z,7.40
2018-07-20T08:23:00.656Z,7.37
2018-07-20T08:25:30.827Z,7.23
2018-07-20T08:28:01.105Z,6.30
2018-07-20T08:30:31.313Z,6.80
2018-07-20T08:33:01.671Z,6.97
2018-07-20T08:35:32.097Z,8.33
2018-07-20T08:38:02.318Z,7.43
2018-07-20T08:40:33.089Z,7.70
2018-07-20T08:43:03.386Z,6.73
2018-07-20T08:45:33.519Z,7.97
2018-07-20T08:48:03.818Z,7.77
2018-07-20T08:50:34.490Z,6.87
2018-07-20T08:53:04.884Z,5.97
2018-07-20T08:55:35.057Z,7.73
2018-07-20T08:58:05.271Z,6.37
2018-07-20T09:00:35.462Z,6.33
2018-07-20T09:03:05.603Z,6.80
2018-07-20T09:05:35.903Z,7.90
2018-07-20T09:08:06.074Z,9.03
2018-07-20T09:10:36.484Z,7.50
2018-07-20T09:13:06.725Z,8.90
2018-07-20T09:15:36.903Z,8.50
2018-07-20T09:18:07.222Z,7.60
2018-07-20T09:20:37.392Z,7.33
2018-07-20T09:23:07.608Z,7.60
2018-07-20T09:25:37.802Z,7.53
2018-07-20T09:28:07.933Z,8.23
2018-07-20T09:30:38.040Z,7.97
2018-07-20T09:33:08.296Z,7.83
2018-07-20T09:35:38.422Z,8.20
2018-07-20T09:38:08.571Z,7.17
2018-07-20T09:40:38.727Z,6.90
2018-07-20T09:43:08.866Z,7.43
2018-07-20T09:45:39.035Z,7.17
2018-07-20T09:48:09.259Z,8.43
2018-07-20T09:50:39.822Z,8.63
2018-07-20T09:53:10.013Z,7.50
2018-07-20T09:55:40.148Z,8.37
2018-07-20T09:58:10.421Z,7.60
2018-07-20T10:00:45.759Z,7.17
2018-07-20T10:03:15.917Z,9.30
2018-07-20T10:05:46.256Z,7.53
2018-07-20T10:08:16.842Z,8.50
2018-07-20T10:10:47.170Z,8.63
2018-07-20T10:13:22.723Z,9.07
2018-07-20T10:15:52.989Z,7.30
2018-07-20T10:18:23.320Z,7.27
2018-07-20T10:20:53.660Z,7.90
2018-07-20T10:23:23.860Z,7.90
2018-07-20T10:25:53.992Z,8.17
2018-07-20T10:28:24.150Z,7.60
2018-07-20T10:30:54.341Z,8.80
2018-07-20T10:33:24.593Z,8.67
2018-07-20T10:35:55.201Z,9.20
2018-07-20T10:38:25.508Z,8.80
2018-07-20T10:40:55.679Z,8.27
2018-07-20T10:43:26.266Z,9.37
2018-07-20T10:45:56.609Z,8.53
2018-07-20T10:48:26.805Z,8.87
2018-07-20T10:50:56.984Z,8.43
2018-07-20T10:53:27.168Z,8.50
2018-07-20T10:55:57.274Z,9.07
2018-07-20T10:58:29.242Z,10.13
2018-07-20T11:00:59.895Z,8.63
2018-07-20T11:03:30.025Z,9.43
2018-07-20T11:06:05.097Z,10.17
2018-07-20T11:08:35.308Z,8.10
2018-07-20T11:11:24.993Z,7.87
2018-07-20T11:14:03.169Z,8.10
2018-07-20T11:16:43.333Z,8.33
2018-07-20T11:19:13.606Z,9.40
2018-07-20T11:21:43.709Z,8.17
2018-07-20T11:24:13.831Z,7.90
2018-07-20T11:26:43.959Z,6.73
2018-07-20T11:29:14.140Z,8.53
2018-07-20T11:31:44.256Z,6.73
2018-07-20T11:34:14.427Z,10.63
2018-07-20T11:36:44.543Z,10.40
2018-07-20T11:39:14.707Z,9.20
2018-07-20T11:41:44.836Z,10.43
2018-07-20T11:44:15.014Z,10.03
2018-07-20T11:46:45.126Z,6.93
2018-07-20T11:49:14.852Z,9.40
2018-07-20T11:51:45.006Z,8.30
2018-07-20T11:54:15.139Z,8.50
2018-07-20T11:56:45.237Z,7.73
2018-07-20T11:59:15.357Z,10.10
2018-07-20T12:01:45.544Z,7.90
2018-07-20T12:04:15.799Z,8.33
2018-07-20T12:06:46.056Z,9.00
2018-07-20T12:09:16.192Z,7.77
2018-07-20T12:11:54.403Z,8.37
2018-07-20T12:14:25.226Z,7.63
2018-07-20T12:16:55.565Z,7.60
2018-07-20T12:19:25.727Z,7.23
2018-07-20T12:21:55.842Z,8.73
2018-07-20T12:24:25.986Z,6.10
2018-07-20T12:26:56.003Z,6.30
2018-07-20T12:29:26.147Z,7.00
2018-07-20T12:31:56.234Z,7.10
2018-07-20T12:34:26.493Z,7.57
2018-07-20T12:36:56.650Z,8.50
2018-07-20T12:39:26.780Z,6.80
2018-07-20T12:41:56.894Z,7.20
2018-07-20T12:44:27.065Z,6.50
2018-07-20T12:46:57.274Z,7.33
2018-07-20T12:49:33.387Z,8.83
2018-07-20T12:52:08.011Z,7.43
2018-07-20T12:54:38.465Z,7.83
2018-07-20T12:57:09.012Z,7.37
2018-07-20T12:59:39.191Z,6.20
2018-07-20T13:02:09.304Z,8.37
2018-07-20T13:04:39.472Z,6.47
2018-07-20T13:07:09.610Z,6.43
2018-07-20T13:09:39.811Z,7.63
2018-07-20T13:12:10.075Z,7.00
2018-07-20T13:14:40.278Z,6.90
2018-07-20T13:17:10.454Z,7.20
2018-07-20T13:19:40.716Z,8.37
2018-07-20T13:22:10.835Z,8.20
2018-07-20T13:24:41.017Z,7.60
2018-07-20T13:27:12.309Z,7.50
2018-07-20T13:29:42.532Z,7.83
2018-07-20T13:32:12.761Z,5.77
2018-07-20T13:34:42.982Z,4.87
2018-07-20T13:37:13.215Z,5.70
2018-07-20T13:39:43.484Z,5.90
2018-07-20T13:42:13.567Z,5.73
2018-07-20T13:44:43.733Z,5.20
2018-07-20T13:47:14.021Z,4.50
2018-07-20T13:49:44.167Z,5.27
2018-07-20T13:52:14.267Z,4.60
2018-07-20T13:54:44.418Z,4.03
2018-07-20T13:57:14.508Z,5.30
2018-07-20T13:59:44.618Z,5.20
2018-07-20T14:02:14.763Z,6.00
2018-07-20T14:04:45.005Z,6.07
2018-07-20T14:07:15.190Z,5.40
2018-07-20T14:09:45.552Z,5.83
2018-07-20T14:12:15.793Z,5.70
2018-07-20T14:14:45.950Z,5.57
2018-07-20T14:17:16.166Z,5.03
2018-07-20T14:19:46.335Z,6.40
2018-07-20T14:22:16.390Z,5.67
2018-07-20T14:24:46.498Z,6.50
2018-07-20T14:27:16.736Z,5.60
2018-07-20T14:29:46.948Z,5.90
2018-07-20T14:32:17.082Z,6.07
2018-07-20T14:34:47.340Z,5.60
2018-07-20T14:37:17.517Z,5.30
2018-07-20T14:39:47.697Z,5.67
2018-07-20T14:42:17.847Z,5.73
2018-07-20T14:44:48.010Z,5.23
2018-07-20T14:47:18.254Z,5.30
2018-07-20T14:49:48.487Z,5.47
2018-07-20T14:52:18.624Z,5.00
2018-07-20T14:54:48.819Z,4.90
2018-07-20T14:57:18.958Z,5.93
2018-07-20T14:59:48.651Z,5.30
2018-07-20T15:02:18.832Z,4.97
2018-07-20T15:04:49.030Z,4.87
2018-07-20T15:07:19.198Z,4.73
2018-07-20T15:09:49.435Z,4.60
2018-07-20T15:12:19.610Z,4.83
2018-07-20T15:14:49.775Z,4.17
2018-07-20T15:17:19.485Z,4.40
2018-07-20T15:19:49.643Z,3.37
2018-07-20T15:22:19.814Z,3.80
2018-07-20T15:24:49.993Z,4.80
2018-07-20T15:27:20.202Z,4.10
2018-07-20T15:29:52.473Z,3.80
2018-07-20T15:32:22.612Z,4.10
2018-07-20T15:34:52.744Z,3.77
2018-07-20T15:37:22.788Z,4.50
2018-07-20T15:39:52.916Z,4.70
2018-07-20T15:42:23.102Z,4.50
2018-07-20T15:44:53.244Z,3.73
2018-07-20T15:47:23.612Z,4.20
2018-07-20T15:49:53.644Z,4.80
2018-07-20T15:54:53.954Z,4.03
2018-07-20T15:57:24.219Z,3.73
2018-07-20T15:59:54.587Z,3.60
2018-07-20T16:02:24.587Z,3.50
2018-07-20T16:04:54.893Z,4.03
2018-07-20T16:07:25.010Z,4.13
2018-07-20T16:09:55.093Z,4.17
2018-07-20T16:12:25.258Z,3.87
2018-07-20T16:14:55.658Z,3.90
2018-07-20T16:17:25.799Z,3.83
2018-07-20T16:19:55.922Z,3.60
2018-07-20T16:22:26.014Z,3.00
2018-07-20T16:24:56.186Z,3.33
2018-07-20T16:27:26.399Z,3.57
2018-07-20T16:29:56.527Z,3.70
2018-07-20T16:32:26.623Z,4.17
2018-07-20T16:34:56.814Z,3.70
2018-07-20T16:37:26.971Z,3.57
2018-07-20T16:39:57.203Z,3.93
2018-07-20T16:42:27.315Z,4.37
2018-07-20T16:44:57.452Z,4.40
2018-07-20T16:47:27.589Z,3.80
2018-07-20T16:49:57.742Z,4.20
2018-07-20T16:52:28.003Z,4.57
2018-07-20T16:54:58.288Z,5.17
2018-07-20T16:57:28.433Z,4.40
2018-07-20T16:59:58.659Z,3.80
2018-07-20T17:02:28.728Z,4.30
2018-07-20T17:04:58.893Z,4.40
2018-07-20T17:07:28.970Z,3.57
2018-07-20T17:09:59.123Z,4.03
2018-07-20T17:12:29.257Z,4.90
2018-07-20T17:14:59.432Z,4.23
2018-07-20T17:17:29.501Z,4.17
2018-07-20T17:20:00.288Z,4.73
2018-07-20T17:22:30.441Z,4.13
2018-07-20T17:25:00.575Z,4.83
2018-07-20T17:27:30.810Z,4.93
2018-07-20T17:30:00.928Z,4.53
2018-07-20T17:32:31.076Z,4.30
2018-07-20T17:35:01.287Z,4.97
2018-07-20T17:37:31.569Z,5.10
2018-07-20T17:40:01.812Z,4.50
2018-07-20T17:42:32.009Z,4.67
2018-07-20T17:45:02.292Z,4.90
2018-07-20T17:47:32.563Z,4.80
2018-07-20T17:50:03.547Z,4.83
2018-07-20T17:52:33.659Z,4.90
2018-07-20T17:55:03.867Z,4.97
2018-07-20T17:57:34.104Z,5.37
2018-07-20T18:00:04.602Z,5.13
2018-07-20T18:02:34.717Z,4.83
2018-07-20T18:05:05.043Z,4.87
2018-07-20T18:07:35.206Z,5.10
2018-07-20T18:10:06.245Z,5.00
2018-07-20T18:12:36.495Z,4.87
2018-07-20T18:15:07.609Z,5.07
2018-07-20T18:17:37.842Z,4.97
2018-07-20T18:20:08.037Z,4.33
2018-07-20T18:22:38.196Z,4.50
2018-07-20T18:25:08.445Z,4.40
2018-07-20T18:27:38.717Z,4.20
2018-07-20T18:30:09.074Z,4.90
2018-07-20T18:32:39.222Z,5.13
2018-07-20T18:35:09.473Z,4.10
2018-07-20T18:37:39.677Z,4.73
2018-07-20T18:40:09.835Z,5.00
2018-07-20T18:42:40.082Z,4.33
2018-07-20T18:45:10.693Z,4.17
2018-07-20T18:47:40.805Z,4.70
2018-07-20T18:50:11.262Z,4.33
2018-07-20T18:52:41.340Z,4.87
2018-07-20T18:55:11.509Z,5.37
2018-07-20T18:57:41.695Z,4.53
2018-07-20T19:00:11.826Z,4.50
2018-07-20T19:02:41.609Z,4.53
2018-07-20T19:05:11.840Z,4.63
2018-07-20T19:07:42.047Z,4.23
2018-07-20T19:10:12.224Z,4.03
2018-07-20T19:12:42.516Z,4.20
2018-07-20T19:15:12.736Z,4.20
2018-07-20T19:17:42.867Z,4.47
2018-07-20T19:20:13.167Z,3.60
2018-07-20T19:22:43.286Z,4.30
2018-07-20T19:25:13.453Z,4.30
2018-07-20T19:27:43.246Z,4.53
2018-07-20T19:30:13.414Z,5.20
2018-07-20T19:32:43.497Z,4.20
2018-07-20T19:35:13.689Z,4.20
2018-07-20T19:37:43.834Z,4.07
2018-07-20T19:40:13.943Z,4.00
2018-07-20T19:42:44.148Z,4.60
2018-07-20T19:45:14.299Z,4.00
2018-07-20T19:47:44.108Z,4.60
2018-07-20T19:50:14.285Z,4.00
2018-07-20T19:52:44.442Z,3.80
2018-07-20T19:55:14.564Z,3.00
2018-07-20T19:57:44.743Z,4.07
2018-07-20T20:00:14.948Z,3.97
2018-07-20T20:02:45.080Z,4.10
2018-07-20T20:05:15.255Z,4.33
2018-07-20T20:07:45.532Z,3.30
2018-07-20T20:10:15.683Z,3.70
2018-07-20T20:12:45.823Z,4.00
2018-07-20T20:15:16.057Z,3.93
2018-07-20T20:17:46.354Z,3.67
2018-07-20T20:20:16.070Z,3.40
2018-07-20T20:22:46.506Z,3.67
2018-07-20T20:25:16.717Z,3.53
2018-07-20T20:27:46.837Z,4.03
2018-07-20T20:30:16.984Z,3.90
2018-07-20T20:32:47.212Z,4.60
2018-07-20T20:35:17.352Z,4.13
2018-07-20T20:37:47.564Z,3.63
2018-07-20T20:40:17.786Z,4.47
2018-07-20T20:42:47.902Z,3.80
2018-07-20T20:45:18.067Z,4.10
2018-07-20T20:47:48.188Z,3.70
2018-07-20T20:50:18.378Z,3.60
2018-07-20T20:52:48.575Z,3.20
2018-07-20T20:55:18.745Z,4.27
2018-07-20T20:57:48.905Z,3.90
2018-07-20T21:00:19.092Z,4.23
2018-07-20T21:02:49.235Z,4.27
2018-07-20T21:05:19.011Z,5.23
2018-07-20T21:07:49.270Z,4.20
2018-07-20T21:10:19.521Z,5.00
2018-07-20T21:12:50.598Z,5.90
2018-07-20T21:15:20.911Z,5.77
2018-07-20T21:17:51.036Z,6.00
2018-07-20T21:20:21.238Z,6.30
2018-07-20T21:22:51.482Z,6.83
2018-07-20T21:25:21.653Z,7.10
2018-07-20T21:27:51.814Z,7.40
2018-07-20T21:30:21.984Z,8.00
2018-07-20T21:32:52.157Z,6.97
2018-07-20T21:35:22.374Z,7.20
2018-07-20T21:37:52.625Z,7.33
2018-07-20T21:40:22.766Z,8.03
2018-07-20T21:42:52.889Z,9.67
2018-07-20T21:45:23.083Z,9.60
2018-07-20T21:47:53.116Z,9.03
2018-07-20T21:50:23.280Z,9.23
2018-07-20T21:52:53.519Z,8.63
2018-07-20T21:55:23.712Z,10.90
2018-07-20T21:57:54.240Z,10.33
2018-07-20T22:00:24.598Z,9.80
2018-07-20T22:02:54.727Z,11.00
2018-07-20T22:05:24.911Z,12.00
2018-07-20T22:07:55.037Z,10.53
2018-07-20T22:10:24.858Z,11.20
2018-07-20T22:12:55.019Z,11.20
2018-07-20T22:15:25.286Z,10.87
2018-07-20T22:17:55.865Z,10.83
2018-07-20T22:20:26.073Z,9.90
2018-07-20T22:22:56.203Z,10.87
2018-07-20T22:25:26.741Z,9.67
2018-07-20T22:27:56.910Z,9.47
2018-07-20T22:30:27.379Z,9.23
2018-07-20T22:32:57.582Z,8.90
2018-07-20T22:35:27.831Z,7.90
2018-07-20T22:37:57.942Z,8.57
2018-07-20T22:40:28.088Z,9.40
2018-07-20T22:42:58.309Z,8.03
2018-07-20T22:45:28.578Z,9.73
2018-07-20T22:47:58.758Z,8.10
2018-07-20T22:50:29.296Z,8.80
2018-07-20T22:52:59.507Z,8.90
2018-07-20T22:55:29.707Z,8.87
2018-07-20T22:57:59.880Z,8.60
2018-07-20T23:00:30.210Z,7.73
2018-07-20T23:03:00.314Z,7.87
2018-07-20T23:05:30.570Z,7.90
2018-07-20T23:08:09.841Z,8.40
2018-07-20T23:10:40.100Z,8.43
2018-07-20T23:13:10.282Z,8.33
2018-07-20T23:15:40.526Z,8.13
2018-07-20T23:18:10.702Z,7.80
2018-07-20T23:20:40.910Z,7.70
2018-07-20T23:23:11.064Z,8.83
2018-07-20T23:25:41.267Z,9.77
2018-07-20T23:28:12.334Z,9.37
2018-07-20T23:30:42.499Z,8.37
2018-07-20T23:33:12.669Z,8.40
2018-07-20T23:35:42.851Z,7.93
2018-07-20T23:38:12.628Z,8.07
2018-07-20T23:40:43.433Z,9.13
2018-07-20T23:43:13.967Z,7.67
2018-07-20T23:45:44.200Z,9.20
2018-07-20T23:48:14.419Z,7.80
2018-07-20T23:50:44.691Z,9.00
2018-07-20T23:53:15.114Z,8.57
2018-07-20T23:55:45.537Z,8.40
2018-07-20T23:58:15.814Z,8.73
